createdAt,value
2022-11-05T00:00:37.578Z,26.52
2022-11-05T00:03:05.482Z,20.75
2022-11-05T00:05:33.129Z,22.30
2022-11-05T00:08:02.981Z,26.25
2022-11-05T00:10:32.283Z,22.90
2022-11-05T00:13:01.567Z,22.23
2022-11-05T00:15:29.799Z,21.80
2022-11-05T00:17:57.502Z,28.70
2022-11-05T00:20:25.057Z,22.67
2022-11-05T00:23:00.479Z,20.35
2022-11-05T00:25:28.448Z,25.17
2022-11-05T00:28:02.407Z,19.77
2022-11-05T00:30:31.016Z,21.35
2022-11-05T00:33:01.867Z,22.73
2022-11-05T00:35:29.872Z,21.25
2022-11-05T00:37:57.701Z,19.73
2022-11-05T00:40:26.118Z,18.38
2022-11-05T00:42:53.973Z,20.48
2022-11-05T00:45:22.947Z,21.75
2022-11-05T00:47:50.739Z,21.10
2022-11-05T00:50:20.552Z,21.40
2022-11-05T00:52:50.533Z,19.35
2022-11-05T00:55:18.129Z,24.85
2022-11-05T00:57:45.998Z,21.85
2022-11-05T01:00:14.814Z,23.58
2022-11-05T01:02:44.291Z,24.23
2022-11-05T01:05:13.553Z,21.33
2022-11-05T01:07:41.143Z,19.50
2022-11-05T01:10:09.461Z,23.17
2022-11-05T01:12:38.043Z,24.73
2022-11-05T01:15:08.911Z,21.63
2022-11-05T01:17:36.917Z,18.38
2022-11-05T01:20:06.754Z,21.77
2022-11-05T01:22:34.612Z,18.42
2022-11-05T01:25:02.991Z,19.90
2022-11-05T01:27:31.008Z,20.63
2022-11-05T01:29:58.565Z,18.50
2022-11-05T01:32:26.146Z,19.35
2022-11-05T01:34:54.383Z,21.85
2022-11-05T01:37:23.650Z,19.55
2022-11-05T01:39:51.233Z,21.25
2022-11-05T01:42:21.627Z,23.08
2022-11-05T01:45:01.401Z,18.35
2022-11-05T01:47:39.151Z,20.27
2022-11-05T01:50:23.949Z,18.35
2022-11-05T01:52:59.369Z,19.67
2022-11-05T01:55:31.502Z,18.95
2022-11-05T01:58:00.780Z,19.00
2022-11-05T02:00:28.323Z,20.15
2022-11-05T02:02:56.799Z,19.75
2022-11-05T02:05:24.818Z,17.77
2022-11-05T02:07:55.267Z,16.73
2022-11-05T02:10:23.798Z,22.00
2022-11-05T02:12:51.998Z,15.35
2022-11-05T02:15:27.538Z,18.58
2022-11-05T02:18:06.510Z,20.70
2022-11-05T02:20:41.647Z,24.63
2022-11-05T02:23:48.151Z,17.52
2022-11-05T02:26:57.426Z,17.77
2022-11-05T02:29:54.067Z,20.98
2022-11-05T02:32:35.339Z,18.02
2022-11-05T02:35:15.893Z,18.13
2022-11-05T02:37:50.835Z,18.77
2022-11-05T02:40:27.633Z,24.00
2022-11-05T02:43:02.405Z,20.33
2022-11-05T02:45:40.790Z,15.80
2022-11-05T02:48:20.736Z,15.88
2022-11-05T02:50:56.056Z,19.60
2022-11-05T02:53:31.360Z,14.82
2022-11-05T02:56:04.612Z,20.60
2022-11-05T02:58:34.127Z,20.50
2022-11-05T03:01:02.364Z,19.77
2022-11-05T03:03:36.254Z,21.38
2022-11-05T03:06:36.205Z,16.67
2022-11-05T03:09:18.172Z,18.70
2022-11-05T03:11:56.114Z,16.75
2022-11-05T03:14:34.293Z,23.00
2022-11-05T03:17:10.540Z,17.30
2022-11-05T03:19:48.312Z,18.80
2022-11-05T03:22:21.641Z,18.83
2022-11-05T03:24:55.476Z,21.80
2022-11-05T03:27:27.843Z,23.67
2022-11-05T03:30:02.046Z,29.13
2022-11-05T03:32:32.910Z,21.77
2022-11-05T03:35:07.362Z,20.92
2022-11-05T03:37:39.754Z,22.25
2022-11-05T03:40:10.632Z,21.17
2022-11-05T03:42:43.631Z,20.10
2022-11-05T03:45:17.558Z,21.33
2022-11-05T03:47:49.932Z,19.48
2022-11-05T03:50:24.113Z,17.75
2022-11-05T03:52:54.919Z,20.15
2022-11-05T03:55:26.399Z,21.42
2022-11-05T03:57:55.653Z,18.67
2022-11-05T04:00:23.522Z,18.73
2022-11-05T04:02:51.366Z,21.10
2022-11-05T04:05:21.159Z,25.50
2022-11-05T04:07:48.801Z,19.00
2022-11-05T04:10:18.875Z,20.42
2022-11-05T04:12:46.556Z,18.77
2022-11-05T04:15:15.248Z,21.20
2022-11-05T04:17:43.777Z,19.35
2022-11-05T04:20:11.706Z,20.50
2022-11-05T04:22:41.283Z,21.35
2022-11-05T04:25:09.398Z,21.52
2022-11-05T04:27:37.985Z,21.75
2022-11-05T04:30:06.704Z,19.30
2022-11-05T04:32:34.486Z,28.77
2022-11-05T04:35:02.155Z,23.83
2022-11-05T04:37:32.938Z,26.77
2022-11-05T04:40:02.265Z,23.05
2022-11-05T04:42:29.920Z,27.08
2022-11-05T04:44:57.585Z,20.77
2022-11-05T04:47:25.347Z,25.92
2022-11-05T04:49:53.024Z,27.10
2022-11-05T04:52:20.689Z,25.40
2022-11-05T04:54:48.369Z,29.50
2022-11-05T04:57:17.726Z,29.45
2022-11-05T04:59:48.282Z,30.73
2022-11-05T05:02:16.016Z,29.35
2022-11-05T05:04:43.887Z,26.42
2022-11-05T05:07:11.626Z,24.67
2022-11-05T05:09:42.186Z,21.33
2022-11-05T05:12:10.911Z,28.90
2022-11-05T05:14:39.956Z,18.67
2022-11-05T05:17:07.902Z,19.30
2022-11-05T05:19:35.497Z,18.02
2022-11-05T05:22:03.178Z,24.15
2022-11-05T05:24:30.970Z,18.05
2022-11-05T05:26:58.544Z,21.10
2022-11-05T05:29:27.103Z,17.05
2022-11-05T05:31:56.380Z,22.67
2022-11-05T05:34:24.037Z,18.63
2022-11-05T05:36:51.598Z,19.92
2022-11-05T05:39:19.387Z,19.58
2022-11-05T05:41:47.116Z,22.63
2022-11-05T05:44:15.013Z,22.05
2022-11-05T05:46:42.707Z,19.77
2022-11-05T05:49:12.576Z,19.17
2022-11-05T05:51:40.726Z,16.80
2022-11-05T05:54:08.740Z,17.92
2022-11-05T05:56:36.404Z,23.73
2022-11-05T05:59:05.781Z,18.85
2022-11-05T06:01:33.692Z,16.88
2022-11-05T06:04:01.338Z,15.27
2022-11-05T06:06:31.019Z,22.10
2022-11-05T06:08:58.754Z,18.75
2022-11-05T06:11:26.377Z,16.17
2022-11-05T06:13:54.042Z,17.70
2022-11-05T06:16:21.954Z,15.10
2022-11-05T06:18:50.669Z,17.70
2022-11-05T06:21:18.386Z,16.38
2022-11-05T06:23:47.648Z,22.35
2022-11-05T06:26:17.560Z,19.58
2022-11-05T06:28:46.562Z,16.25
2022-11-05T06:31:15.264Z,16.35
2022-11-05T06:33:43.257Z,15.50
2022-11-05T06:36:15.471Z,17.00
2022-11-05T06:38:44.060Z,15.38
2022-11-05T06:41:13.339Z,22.27
2022-11-05T06:43:43.033Z,18.75
2022-11-05T06:46:11.652Z,19.13
2022-11-05T06:48:41.776Z,23.55
2022-11-05T06:51:10.608Z,15.18
2022-11-05T06:53:38.529Z,20.75
2022-11-05T06:56:07.874Z,18.38
2022-11-05T06:58:37.191Z,17.10
2022-11-05T07:01:07.195Z,18.55
2022-11-05T07:03:36.311Z,19.88
2022-11-05T07:06:06.401Z,18.70
2022-11-05T07:08:35.400Z,18.63
2022-11-05T07:11:03.699Z,19.98
2022-11-05T07:13:31.828Z,22.70
2022-11-05T07:16:03.279Z,22.98
2022-11-05T07:18:31.296Z,27.83
2022-11-05T07:21:00.217Z,20.55
2022-11-05T07:23:28.232Z,18.27
2022-11-05T07:25:55.873Z,20.17
2022-11-05T07:28:23.713Z,18.55
2022-11-05T07:30:51.476Z,24.48
2022-11-05T07:33:20.625Z,18.50
2022-11-05T07:35:48.435Z,21.27
2022-11-05T07:38:16.030Z,19.83
2022-11-05T07:40:43.944Z,19.20
2022-11-05T07:43:11.970Z,17.30
2022-11-05T07:45:40.351Z,19.58
2022-11-05T07:48:08.329Z,15.75
2022-11-05T07:50:38.200Z,15.82
2022-11-05T07:53:09.504Z,17.42
2022-11-05T07:55:38.020Z,17.00
2022-11-05T07:58:05.898Z,13.73
2022-11-05T08:00:34.126Z,15.90
2022-11-05T08:03:08.179Z,16.42
2022-11-05T08:05:40.663Z,14.60
2022-11-05T08:08:10.288Z,17.25
2022-11-05T08:10:38.766Z,13.88
2022-11-05T08:13:08.864Z,14.27
2022-11-05T08:15:37.424Z,16.60
2022-11-05T08:18:06.995Z,17.05
2022-11-05T08:20:37.567Z,10.77
2022-11-05T08:23:05.729Z,12.65
2022-11-05T08:25:33.824Z,18.05
2022-11-05T08:28:03.966Z,16.40
2022-11-05T08:30:32.045Z,11.23
2022-11-05T08:33:02.625Z,12.75
2022-11-05T08:35:30.680Z,12.88
2022-11-05T08:38:02.039Z,17.15
2022-11-05T08:40:32.016Z,14.10
2022-11-05T08:43:01.392Z,13.03
2022-11-05T08:45:29.867Z,13.38
2022-11-05T08:48:01.488Z,11.60
2022-11-05T08:50:29.783Z,12.60
2022-11-05T08:52:59.327Z,12.93
2022-11-05T08:55:27.765Z,15.20
2022-11-05T08:57:55.857Z,13.35
2022-11-05T09:00:24.595Z,12.15
2022-11-05T09:02:52.868Z,12.85
2022-11-05T09:05:20.551Z,8.75
2022-11-05T09:07:49.096Z,15.07
2022-11-05T09:10:18.693Z,10.27
2022-11-05T09:12:46.952Z,18.10
2022-11-05T09:15:15.933Z,11.70
2022-11-05T09:17:43.670Z,16.58
2022-11-05T09:20:12.172Z,16.15
2022-11-05T09:22:43.268Z,15.15
2022-11-05T09:25:11.824Z,15.25
2022-11-05T09:27:41.271Z,15.55
2022-11-05T09:30:10.829Z,13.70
2022-11-05T09:32:38.985Z,16.70
2022-11-05T09:35:07.835Z,15.57
2022-11-05T09:37:36.360Z,16.92
2022-11-05T09:40:05.411Z,14.75
2022-11-05T09:42:38.004Z,15.18
2022-11-05T09:45:10.915Z,17.98
2022-11-05T09:47:42.701Z,14.90
2022-11-05T09:50:17.489Z,18.13
2022-11-05T09:52:46.254Z,15.93
2022-11-05T09:55:20.113Z,16.67
2022-11-05T09:57:54.655Z,14.82
2022-11-05T10:00:25.155Z,17.33
2022-11-05T10:02:55.680Z,22.52
2022-11-05T10:05:28.086Z,18.85
2022-11-05T10:07:59.381Z,18.27
2022-11-05T10:10:40.587Z,15.80
2022-11-05T10:13:19.443Z,19.77
2022-11-05T10:15:59.179Z,21.15
2022-11-05T10:18:32.706Z,21.93
2022-11-05T10:21:01.974Z,18.98
2022-11-05T10:23:30.234Z,21.60
2022-11-05T10:26:04.194Z,19.52
2022-11-05T10:28:33.946Z,26.80
2022-11-05T10:31:06.529Z,18.35
2022-11-05T10:33:41.330Z,19.15
2022-11-05T10:36:12.569Z,23.50
2022-11-05T10:38:40.458Z,23.20
2022-11-05T10:41:39.486Z,20.40
2022-11-05T10:44:19.215Z,20.77
2022-11-05T10:46:58.096Z,24.00
2022-11-05T10:49:40.834Z,20.30
2022-11-05T10:52:22.931Z,23.75
2022-11-05T10:54:52.619Z,21.05
2022-11-05T10:57:32.545Z,31.02
2022-11-05T11:00:25.888Z,80.38
2022-11-05T11:02:58.554Z,47.78
2022-11-05T11:05:30.609Z,22.95
2022-11-05T11:10:34.213Z,27.63
2022-11-05T11:13:02.759Z,27.70
2022-11-05T11:15:31.545Z,19.30
2022-11-05T11:18:25.398Z,23.90
2022-11-05T11:20:53.354Z,23.92
2022-11-05T11:23:20.956Z,21.05
2022-11-05T11:25:53.249Z,21.73
2022-11-05T11:28:23.623Z,26.25
2022-11-05T11:31:04.763Z,30.05
2022-11-05T11:33:35.312Z,23.52
2022-11-05T11:36:04.059Z,24.38
2022-11-05T11:38:34.452Z,30.48
2022-11-05T11:41:13.831Z,34.13
2022-11-05T11:43:42.609Z,32.25
2022-11-05T11:46:15.258Z,24.20
2022-11-05T11:48:45.889Z,23.83
2022-11-05T11:51:20.305Z,23.02
2022-11-05T11:53:49.686Z,25.55
2022-11-05T11:56:18.991Z,24.83
2022-11-05T11:58:50.816Z,25.02
2022-11-05T12:01:42.973Z,25.73
2022-11-05T12:04:22.104Z,30.48
2022-11-05T12:07:02.761Z,37.42
2022-11-05T12:12:11.380Z,26.85
2022-11-05T12:14:54.719Z,29.17
2022-11-05T12:52:01.339Z,28.95
2022-11-05T12:57:32.314Z,27.48
2022-11-05T13:00:06.117Z,29.40
2022-11-05T13:02:40.800Z,28.20
2022-11-05T13:05:16.352Z,27.92
2022-11-05T13:07:54.427Z,31.35
2022-11-05T13:10:28.633Z,31.42
2022-11-05T13:13:04.903Z,30.42
2022-11-05T13:15:38.997Z,27.13
2022-11-05T13:18:13.601Z,30.02
2022-11-05T13:20:46.416Z,29.58
2022-11-05T13:23:21.017Z,26.63
2022-11-05T13:28:38.667Z,24.73
2022-11-05T13:34:19.954Z,23.58
2022-11-05T13:36:53.363Z,21.60
2022-11-05T13:39:26.517Z,17.27
2022-11-05T13:42:12.253Z,19.17
2022-11-05T13:45:13.721Z,18.85
2022-11-05T13:48:05.712Z,19.42
2022-11-05T13:50:56.606Z,21.23
2022-11-05T13:53:41.574Z,22.88
2022-11-05T13:56:29.303Z,26.27
2022-11-05T13:59:16.021Z,18.38
2022-11-05T14:01:48.627Z,17.42
2022-11-05T14:04:28.428Z,22.15
2022-11-05T14:07:07.035Z,17.58
2022-11-05T14:12:20.863Z,15.38
2022-11-05T14:14:57.488Z,25.98
2022-11-05T14:17:32.618Z,16.42
2022-11-05T14:20:30.786Z,13.35
2022-11-05T14:23:37.403Z,15.10
2022-11-05T14:26:17.899Z,19.40
2022-11-05T14:29:21.423Z,19.42
2022-11-05T14:32:09.991Z,16.67
2022-11-05T14:34:55.152Z,15.93
2022-11-05T14:37:32.390Z,19.95
2022-11-05T14:40:32.559Z,12.90
2022-11-05T14:43:03.232Z,20.85
2022-11-05T14:45:36.559Z,14.57
2022-11-05T15:22:25.425Z,16.65
2022-11-05T15:25:18.328Z,17.25
2022-11-05T15:28:05.839Z,15.98
2022-11-05T15:30:33.848Z,15.60
2022-11-05T15:33:20.512Z,14.50
2022-11-05T18:35:09.834Z,13.70
2022-11-05T18:37:38.084Z,18.00
2022-11-05T18:40:07.256Z,12.18
2022-11-05T18:42:35.124Z,15.80
2022-11-05T18:45:03.671Z,12.63
2022-11-05T18:47:31.718Z,13.13
2022-11-05T18:49:59.782Z,16.17
2022-11-05T18:52:28.933Z,11.32
2022-11-05T18:54:56.498Z,13.70
2022-11-05T18:57:24.269Z,13.43
2022-11-05T18:59:52.059Z,15.90
2022-11-05T19:02:19.801Z,12.65
2022-11-05T19:05:14.068Z,14.95
2022-11-05T19:07:39.104Z,13.75
2022-11-05T19:10:09.166Z,12.32
2022-11-05T19:12:37.586Z,13.00
2022-11-05T19:15:06.015Z,13.98
2022-11-05T19:17:37.794Z,13.55
2022-11-05T19:20:07.295Z,12.40
2022-11-05T19:22:35.450Z,12.82
2022-11-05T19:25:05.537Z,15.73
2022-11-05T19:27:35.630Z,14.63
2022-11-05T19:30:03.867Z,14.00
2022-11-05T19:32:31.911Z,14.40
2022-11-05T19:34:59.569Z,16.30
2022-11-05T19:37:27.188Z,14.13
2022-11-05T19:39:54.883Z,17.30
2022-11-05T19:42:26.715Z,15.65
2022-11-05T19:44:54.423Z,18.17
2022-11-05T19:47:22.278Z,15.23
2022-11-05T19:49:49.912Z,17.15
2022-11-05T19:52:18.413Z,15.18
2022-11-05T19:54:46.028Z,12.40
2022-11-05T19:57:14.260Z,12.77
2022-11-05T19:59:43.545Z,15.32
2022-11-05T20:02:16.081Z,14.77
2022-11-05T20:04:44.790Z,14.05
2022-11-05T20:07:12.494Z,14.52
2022-11-05T20:09:40.273Z,15.63
2022-11-05T20:12:10.041Z,13.48
2022-11-05T20:14:37.949Z,15.88
2022-11-05T20:17:07.262Z,13.68
2022-11-05T20:19:35.128Z,14.23
2022-11-05T20:22:03.616Z,14.63
2022-11-05T20:24:31.678Z,13.57
2022-11-05T20:26:59.524Z,15.13
2022-11-05T20:29:33.816Z,13.65
2022-11-05T20:32:03.794Z,13.90
2022-11-05T20:34:34.908Z,14.75
2022-11-05T20:37:02.535Z,18.45
2022-11-05T20:39:30.744Z,14.32
2022-11-05T20:41:59.986Z,13.60
2022-11-05T20:44:27.970Z,20.00
2022-11-05T20:46:57.779Z,15.98
2022-11-05T20:49:25.987Z,14.10
2022-11-05T20:51:55.250Z,14.35
2022-11-05T20:54:23.686Z,15.60
2022-11-05T20:56:51.310Z,18.08
2022-11-05T20:59:19.241Z,15.25
2022-11-05T21:01:47.513Z,14.50
2022-11-05T21:04:15.462Z,17.77
2022-11-05T21:06:43.180Z,15.25
2022-11-05T21:09:12.840Z,15.07
2022-11-05T21:11:41.532Z,17.63
2022-11-05T21:14:09.913Z,18.50
2022-11-05T21:16:37.681Z,13.95
2022-11-05T21:19:05.434Z,18.90
2022-11-05T21:21:37.379Z,13.05
2022-11-05T21:24:08.405Z,13.85
2022-11-05T21:26:37.856Z,16.15
2022-11-05T21:29:05.835Z,15.48
2022-11-05T21:31:36.248Z,16.30
2022-11-05T21:34:04.300Z,12.73
2022-11-05T21:36:33.591Z,15.60
2022-11-05T21:39:01.608Z,15.90
2022-11-05T21:41:30.258Z,14.80
2022-11-05T21:43:59.293Z,11.95
2022-11-05T21:46:27.041Z,15.77
2022-11-05T21:48:55.203Z,14.88
2022-11-05T21:51:23.097Z,15.95
2022-11-05T21:53:50.785Z,11.93
2022-11-05T21:56:21.177Z,14.27
2022-11-05T21:58:48.830Z,13.95
2022-11-05T22:01:18.197Z,13.80
2022-11-05T22:03:45.973Z,13.35
2022-11-05T22:06:14.109Z,11.68
2022-11-05T22:08:41.882Z,13.07
2022-11-05T22:11:09.478Z,13.55
2022-11-05T22:13:37.297Z,15.23
2022-11-05T22:16:06.308Z,11.38
2022-11-05T22:18:35.657Z,13.43
2022-11-05T22:21:04.386Z,12.00
2022-11-05T22:23:32.360Z,12.93
2022-11-05T22:26:02.382Z,11.50
2022-11-05T22:28:30.276Z,12.38
2022-11-05T22:30:59.154Z,10.20
2022-11-05T22:33:27.022Z,8.98
2022-11-05T22:35:56.063Z,15.43
2022-11-05T22:38:23.727Z,10.80
2022-11-05T22:40:52.762Z,10.10
2022-11-05T22:43:20.744Z,13.10
2022-11-05T22:45:48.527Z,9.00
2022-11-05T22:48:16.337Z,8.23
2022-11-05T22:50:44.044Z,7.40
2022-11-05T22:53:13.264Z,8.90
2022-11-05T22:55:41.551Z,11.73
2022-11-05T22:58:09.160Z,7.82
2022-11-05T23:00:38.196Z,9.25
2022-11-05T23:03:06.078Z,10.38
2022-11-05T23:05:35.308Z,7.40
2022-11-05T23:08:03.400Z,7.25
2022-11-05T23:10:32.775Z,10.10
2022-11-05T23:13:00.377Z,10.25
2022-11-05T23:15:28.004Z,11.25
2022-11-05T23:17:55.757Z,7.38
2022-11-05T23:20:23.851Z,9.65
2022-11-05T23:22:52.278Z,9.65
2022-11-05T23:25:21.639Z,9.77
2022-11-05T23:27:54.720Z,8.23
2022-11-05T23:30:23.900Z,9.43
2022-11-05T23:32:52.843Z,9.50
2022-11-05T23:35:22.295Z,9.85
2022-11-05T23:37:50.005Z,8.95
2022-11-05T23:40:20.811Z,10.98
2022-11-05T23:42:51.038Z,7.68
2022-11-05T23:45:19.143Z,12.45
2022-11-05T23:47:47.653Z,10.48
2022-11-05T23:50:15.543Z,10.10
2022-11-05T23:52:43.112Z,10.02
2022-11-05T23:55:10.755Z,11.07
2022-11-05T23:57:38.608Z,8.73
